Anna M — TCAD8 — position and weather

sailwx.info

Track history (hours):
 
Tides and Currents Weather Stations Pressure Air Temp Water Temp Dewpoint Dewpoint Depression Visibility Wind Speed Wind Dir Waves Ship Positions

Anna M

Last reported at 2018-May-02 08:06 UTC. Time now 2018-May-28 01:39 UTC.
Position N 44°09' E 028°39'.
Warning: this ship's position is 25 days out of date.

Length 67 m; draft 5 m.

Type: Cargo ship. MMSI: 271002123.

Date/timePositionNaut miles runAvg speedWind from/ knotsBaromVisibWave heightAir tempDewpointWater temp
2018-May-02 08:06N 44°09' E 028°39'0 0.0
2018-May-02 08:00N 44°09' E 028°39'0 0.0
2018-May-02 07:30N 44°09' E 028°39'0 0.0
2018-May-02 07:00N 44°09' E 028°39'0 0.0
2018-May-02 06:30N 44°09' E 028°39'0 0.0
2018-May-02 06:00N 44°09' E 028°39'0 0.0
2018-May-02 05:27N 44°09' E 028°39'0 0.0
2018-May-02 05:00N 44°09' E 028°39'0 0.1
2018-May-02 04:30N 44°09' E 028°39'0 0.1
2018-May-02 04:00N 44°09' E 028°39'0 0.0
2018-May-02 03:30N 44°09' E 028°39'0 0.0
2018-May-02 03:00N 44°09' E 028°39'0 0.0
2018-May-02 02:30N 44°09' E 028°39'0 0.0
2018-May-02 02:00N 44°09' E 028°39'0 0.0
2018-May-02 01:30N 44°09' E 028°39'0 0.0
2018-May-02 01:00N 44°09' E 028°39'0 0.0
2018-May-02 00:30N 44°09' E 028°39'0 0.0
2018-May-02 00:00N 44°09' E 028°39'0 0.0
2018-May-01 23:30N 44°09' E 028°39'0 0.0
2018-May-01 23:00N 44°09' E 028°39'0 0.0
2018-May-01 22:28N 44°09' E 028°39'0 0.0
2018-May-01 22:00N 44°09' E 028°39'0 0.0
2018-May-01 21:30N 44°09' E 028°39'0 0.0
2018-May-01 20:58N 44°09' E 028°39'0 0.0
2018-May-01 20:30N 44°09' E 028°39'0 0.0
2018-May-01 19:54N 44°09' E 028°39'0 0.0
2018-May-01 19:27N 44°09' E 028°39'0 0.0
2018-May-01 18:57N 44°09' E 028°39'0 0.0
2018-May-01 18:30N 44°09' E 028°39'0 0.0
2018-May-01 17:59N 44°09' E 028°39'0 0.0
2018-May-01 17:30N 44°09' E 028°39'0 0.9
2018-May-01 17:00N 44°09' E 028°39'4 7.0
2018-May-01 16:30N 44°06' E 028°42'2 3.7
2018-May-01 16:00N 44°07' E 028°44'0 0.1
2018-May-01 15:30N 44°07' E 028°44'0 0.0
2018-May-01 15:00N 44°07' E 028°44'0 0.0
2018-May-01 14:27N 44°07' E 028°44'0 0.0
2018-May-01 14:00N 44°07' E 028°44'0 0.0
2018-May-01 13:21N 44°07' E 028°44'0 0.0
2018-May-01 13:00N 44°07' E 028°44'0 0.0
2018-May-01 12:27N 44°07' E 028°44'0 0.0
2018-May-01 12:00N 44°07' E 028°44'0 0.0
2018-May-01 11:30N 44°07' E 028°44'0 0.0
2018-May-01 11:00N 44°07' E 028°44'0 0.1
2018-May-01 10:30N 44°07' E 028°45'0 0.0
2018-May-01 10:00N 44°07' E 028°45'0 0.0
2018-May-01 09:27N 44°07' E 028°45'0 0.0
2018-May-01 08:58N 44°07' E 028°45'0 0.0
2018-May-01 08:28N 44°07' E 028°45'0 0.0
2018-May-01 07:58N 44°07' E 028°45'0 0.0
2018-May-01 07:28N 44°07' E 028°45'0 0.0
2018-May-01 06:58N 44°07' E 028°45'0 0.0
2018-May-01 06:28N 44°07' E 028°45'0 0.0
2018-May-01 05:58N 44°07' E 028°45'0 0.0
2018-May-01 03:49N 44°07' E 028°44'0 0.0
2018-May-01 03:25N 44°07' E 028°45'0 0.0
2018-May-01 02:58N 44°07' E 028°44'0 0.0
2018-May-01 02:28N 44°07' E 028°44'0 0.0
2018-May-01 02:00N 44°07' E 028°45'0 0.0
2018-May-01 01:30N 44°07' E 028°45'0 0.0
2018-May-01 01:00N 44°07' E 028°45'0 0.0
2018-May-01 00:30N 44°07' E 028°45'0 0.0
2018-Apr-30 23:57N 44°07' E 028°44'0 0.0
2018-Apr-30 23:24N 44°07' E 028°44'0 0.0
2018-Apr-30 22:57N 44°07' E 028°44'0 0.0
2018-Apr-30 22:27N 44°07' E 028°44'0 0.0
2018-Apr-30 21:57N 44°07' E 028°44'189 5.2
2018-Apr-29 09:29N 40°59' E 029°00'3 6.8
2018-Apr-29 09:00N 40°56' E 029°03'7 3.0
2018-Apr-29 06:33N 40°53' E 029°11'0 0.0
2018-Apr-29 06:24N 40°53' E 029°11'0 0.0
2018-Apr-29 06:00N 40°53' E 029°11'0 0.0
2018-Apr-29 05:24N 40°53' E 029°11'0 0.0
2018-Apr-29 05:00N 40°53' E 029°11'0 0.0
2018-Apr-29 04:24N 40°53' E 029°11'0 0.0
2018-Apr-28 17:33N 40°53' E 029°11'0 0.1
2018-Apr-28 17:27N 40°53' E 029°11'0 0.0
2018-Apr-28 17:00N 40°53' E 029°11'0 0.0
2018-Apr-28 15:57N 40°53' E 029°11'3 4.6
2018-Apr-28 15:23N 40°50' E 029°12'3 8.8
2018-Apr-28 15:00N 40°48' E 029°14'5 9.4
2018-Apr-28 14:29N 40°45' E 029°20'  
2018-Apr-23 20:09N 42°54' E 028°08'4 9.4
2018-Apr-23 19:46N 42°57' E 028°06'3 9.3
2018-Apr-23 19:24N 42°60' E 028°04'8 9.1
2018-Apr-23 18:28N 43°08' E 028°00'  
Track history (hours):
 
Tides and Currents Weather Stations Pressure Air Temp Water Temp Dewpoint Dewpoint Depression Visibility Wind Speed Wind Dir Waves Ship Positions

Anna M

Last reported at 2018-May-02 08:06 UTC. Time now 2018-May-28 01:39 UTC.
Position N 44°09' E 028°39'.
Warning: this ship's position is 25 days out of date.

Length 67 m; draft 5 m.

Type: Cargo ship. MMSI: 271002123.

Date/timePositionNaut miles runAvg speedWind from/ knotsBaromVisibWave heightAir tempDewpointWater temp
2018-May-02 08:06N 44°09' E 028°39'0 0.0
2018-May-02 08:00N 44°09' E 028°39'0 0.0
2018-May-02 07:30N 44°09' E 028°39'0 0.0
2018-May-02 07:00N 44°09' E 028°39'0 0.0
2018-May-02 06:30N 44°09' E 028°39'0 0.0
2018-May-02 06:00N 44°09' E 028°39'0 0.0
2018-May-02 05:27N 44°09' E 028°39'0 0.0
2018-May-02 05:00N 44°09' E 028°39'0 0.1
2018-May-02 04:30N 44°09' E 028°39'0 0.1
2018-May-02 04:00N 44°09' E 028°39'0 0.0
2018-May-02 03:30N 44°09' E 028°39'0 0.0
2018-May-02 03:00N 44°09' E 028°39'0 0.0
2018-May-02 02:30N 44°09' E 028°39'0 0.0
2018-May-02 02:00N 44°09' E 028°39'0 0.0
2018-May-02 01:30N 44°09' E 028°39'0 0.0
2018-May-02 01:00N 44°09' E 028°39'0 0.0
2018-May-02 00:30N 44°09' E 028°39'0 0.0
2018-May-02 00:00N 44°09' E 028°39'0 0.0
2018-May-01 23:30N 44°09' E 028°39'0 0.0
2018-May-01 23:00N 44°09' E 028°39'0 0.0
2018-May-01 22:28N 44°09' E 028°39'0 0.0
2018-May-01 22:00N 44°09' E 028°39'0 0.0
2018-May-01 21:30N 44°09' E 028°39'0 0.0
2018-May-01 20:58N 44°09' E 028°39'0 0.0
2018-May-01 20:30N 44°09' E 028°39'0 0.0
2018-May-01 19:54N 44°09' E 028°39'0 0.0
2018-May-01 19:27N 44°09' E 028°39'0 0.0
2018-May-01 18:57N 44°09' E 028°39'0 0.0
2018-May-01 18:30N 44°09' E 028°39'0 0.0
2018-May-01 17:59N 44°09' E 028°39'0 0.0
2018-May-01 17:30N 44°09' E 028°39'0 0.9
2018-May-01 17:00N 44°09' E 028°39'4 7.0
2018-May-01 16:30N 44°06' E 028°42'2 3.7
2018-May-01 16:00N 44°07' E 028°44'0 0.1
2018-May-01 15:30N 44°07' E 028°44'0 0.0
2018-May-01 15:00N 44°07' E 028°44'0 0.0
2018-May-01 14:27N 44°07' E 028°44'0 0.0
2018-May-01 14:00N 44°07' E 028°44'0 0.0
2018-May-01 13:21N 44°07' E 028°44'0 0.0
2018-May-01 13:00N 44°07' E 028°44'0 0.0
2018-May-01 12:27N 44°07' E 028°44'0 0.0
2018-May-01 12:00N 44°07' E 028°44'0 0.0
2018-May-01 11:30N 44°07' E 028°44'0 0.0
2018-May-01 11:00N 44°07' E 028°44'0 0.1
2018-May-01 10:30N 44°07' E 028°45'0 0.0
2018-May-01 10:00N 44°07' E 028°45'0 0.0
2018-May-01 09:27N 44°07' E 028°45'0 0.0
2018-May-01 08:58N 44°07' E 028°45'0 0.0
2018-May-01 08:28N 44°07' E 028°45'0 0.0
2018-May-01 07:58N 44°07' E 028°45'0 0.0
2018-May-01 07:28N 44°07' E 028°45'0 0.0
2018-May-01 06:58N 44°07' E 028°45'0 0.0
2018-May-01 06:28N 44°07' E 028°45'0 0.0
2018-May-01 05:58N 44°07' E 028°45'0 0.0
2018-May-01 03:49N 44°07' E 028°44'0 0.0
2018-May-01 03:25N 44°07' E 028°45'0 0.0
2018-May-01 02:58N 44°07' E 028°44'0 0.0
2018-May-01 02:28N 44°07' E 028°44'0 0.0
2018-May-01 02:00N 44°07' E 028°45'0 0.0
2018-May-01 01:30N 44°07' E 028°45'0 0.0
2018-May-01 01:00N 44°07' E 028°45'0 0.0
2018-May-01 00:30N 44°07' E 028°45'0 0.0
2018-Apr-30 23:57N 44°07' E 028°44'0 0.0
2018-Apr-30 23:24N 44°07' E 028°44'0 0.0
2018-Apr-30 22:57N 44°07' E 028°44'0 0.0
2018-Apr-30 22:27N 44°07' E 028°44'0 0.0
2018-Apr-30 21:57N 44°07' E 028°44'189 5.2
2018-Apr-29 09:29N 40°59' E 029°00'3 6.8
2018-Apr-29 09:00N 40°56' E 029°03'7 3.0
2018-Apr-29 06:33N 40°53' E 029°11'0 0.0
2018-Apr-29 06:24N 40°53' E 029°11'0 0.0
2018-Apr-29 06:00N 40°53' E 029°11'0 0.0
2018-Apr-29 05:24N 40°53' E 029°11'0 0.0
2018-Apr-29 05:00N 40°53' E 029°11'0 0.0
2018-Apr-29 04:24N 40°53' E 029°11'0 0.0
2018-Apr-28 17:33N 40°53' E 029°11'0 0.1
2018-Apr-28 17:27N 40°53' E 029°11'0 0.0
2018-Apr-28 17:00N 40°53' E 029°11'0 0.0
2018-Apr-28 15:57N 40°53' E 029°11'3 4.6
2018-Apr-28 15:23N 40°50' E 029°12'3 8.8
2018-Apr-28 15:00N 40°48' E 029°14'5 9.4
2018-Apr-28 14:29N 40°45' E 029°20'  
2018-Apr-23 20:09N 42°54' E 028°08'4 9.4
2018-Apr-23 19:46N 42°57' E 028°06'3 9.3
2018-Apr-23 19:24N 42°60' E 028°04'8 9.1
2018-Apr-23 18:28N 43°08' E 028°00'  

Dump ship's entire track history